Terminal Aerodrome Forecast
Issued by NWS Amarillo, TX

Home | Current Version | Previous Version | Text Only | Print | Product List | Glossary On
Versions: 1 2 3 4 5 6 7 8 9 10 11 12 13 14
000
FTUS44 KAMA 131100
TAFDHT
TAF
KDHT 131120Z 1312/1412 02008KT P6SM SCT070 BKN120
     FM131700 07007KT P6SM VCSH BKN080
     FM132000 09008KT P6SM BKN050
      TEMPO 1320/1324 5SM -TSRA BR BKN040CB
     FM140200 02006KT P6SM VCSH SCT040 OVC090=

USA.gov is the U.S. government's official web portal to all federal, state and local government web resources and services.